createdAt,value
2018-12-10T00:01:00.351Z,1.63
2018-12-10T00:02:02.898Z,1.63
2018-12-10T00:04:42.446Z,1.50
2018-12-10T00:05:44.908Z,1.60
2018-12-10T00:06:47.382Z,1.33
2018-12-10T00:07:49.884Z,1.80
2018-12-10T00:08:52.395Z,1.30
2018-12-10T00:09:54.911Z,1.40
2018-12-10T00:10:57.372Z,1.13
2018-12-10T00:11:59.846Z,1.27
2018-12-10T00:13:02.309Z,1.20
2018-12-10T00:14:04.865Z,1.40
2018-12-10T00:15:07.510Z,1.50
2018-12-10T00:16:09.973Z,1.97
2018-12-10T00:17:12.461Z,1.43
2018-12-10T00:18:14.944Z,1.40
2018-12-10T00:19:17.431Z,1.30
2018-12-10T00:20:19.977Z,1.30
2018-12-10T00:21:22.460Z,1.80
2018-12-10T00:22:24.943Z,1.20
2018-12-10T00:23:27.440Z,1.60
2018-12-10T00:24:29.937Z,1.33
2018-12-10T00:25:32.414Z,1.10
2018-12-10T00:26:34.894Z,2.00
2018-12-10T00:27:37.373Z,1.40
2018-12-10T00:28:39.863Z,1.50
2018-12-10T00:29:42.638Z,1.80
2018-12-10T00:30:45.119Z,1.43
2018-12-10T00:31:47.590Z,1.63
2018-12-10T00:32:50.068Z,1.10
2018-12-10T00:33:52.544Z,1.23
2018-12-10T00:34:55.063Z,1.10
2018-12-10T00:35:57.528Z,1.03
2018-12-10T00:36:59.984Z,1.20
2018-12-10T00:38:02.478Z,1.27
2018-12-10T00:39:06.629Z,1.37
2018-12-10T00:40:09.284Z,1.47
2018-12-10T00:41:11.758Z,1.50
2018-12-10T00:42:14.299Z,1.40
2018-12-10T00:43:16.774Z,1.50
2018-12-10T00:44:19.256Z,1.47
2018-12-10T00:45:21.815Z,1.47
2018-12-10T00:46:24.454Z,1.20
2018-12-10T00:47:26.924Z,1.30
2018-12-10T00:48:29.413Z,1.50
2018-12-10T00:49:32.059Z,1.53
2018-12-10T00:50:34.544Z,1.40
2018-12-10T00:51:37.023Z,1.50
2018-12-10T00:52:39.489Z,1.40
2018-12-10T00:53:41.976Z,1.17
2018-12-10T00:54:44.480Z,1.10
2018-12-10T00:55:47.008Z,1.27
2018-12-10T00:56:49.494Z,1.60
2018-12-10T00:57:52.230Z,1.30
2018-12-10T00:58:54.753Z,1.03
2018-12-10T00:59:57.246Z,1.27
2018-12-10T01:00:59.820Z,1.30
2018-12-10T01:02:02.291Z,1.10
2018-12-10T01:03:04.774Z,1.27
2018-12-10T01:04:07.260Z,1.57
2018-12-10T01:05:09.867Z,1.50
2018-12-10T01:06:12.366Z,1.10
2018-12-10T01:07:14.951Z,1.30
2018-12-10T01:08:17.738Z,1.40
2018-12-10T01:09:20.238Z,1.70
2018-12-10T01:10:22.717Z,1.50
2018-12-10T01:11:25.218Z,1.27
2018-12-10T01:12:27.714Z,1.50
2018-12-10T01:13:30.205Z,1.30
2018-12-10T01:14:32.690Z,1.50
2018-12-10T01:15:35.257Z,1.60
2018-12-10T01:16:37.769Z,1.20
2018-12-10T01:17:40.254Z,1.40
2018-12-10T01:18:42.722Z,1.70
2018-12-10T01:19:45.192Z,1.27
2018-12-10T01:20:47.686Z,1.70
2018-12-10T01:21:50.208Z,1.40
2018-12-10T01:22:52.676Z,1.40
2018-12-10T01:23:55.158Z,1.33
2018-12-10T01:24:57.654Z,1.40
2018-12-10T01:26:00.152Z,1.20
2018-12-10T01:27:02.654Z,1.27
2018-12-10T01:28:05.130Z,1.10
2018-12-10T01:29:07.626Z,1.23
2018-12-10T01:30:10.112Z,1.53
2018-12-10T01:31:12.588Z,1.20
2018-12-10T01:32:15.086Z,1.40
2018-12-10T01:33:17.563Z,1.60
2018-12-10T01:34:20.056Z,1.13
2018-12-10T01:35:22.520Z,1.30
2018-12-10T01:36:25.019Z,1.37
2018-12-10T01:37:27.523Z,1.60
2018-12-10T01:38:30.006Z,1.30
2018-12-10T01:39:32.473Z,1.30
2018-12-10T01:40:34.940Z,1.70
2018-12-10T01:41:37.404Z,1.17
2018-12-10T01:42:39.881Z,1.20
2018-12-10T01:43:42.382Z,1.50
2018-12-10T01:44:44.893Z,1.10
2018-12-10T01:45:47.383Z,1.20
2018-12-10T01:46:49.844Z,1.60
2018-12-10T01:47:52.347Z,1.70
2018-12-10T01:48:54.837Z,1.10
2018-12-10T01:49:57.311Z,1.27
2018-12-10T01:50:59.799Z,1.17
2018-12-10T01:52:02.282Z,1.13
2018-12-10T01:53:04.774Z,1.67
2018-12-10T01:54:07.274Z,1.10
2018-12-10T01:55:09.762Z,1.17
2018-12-10T01:56:12.261Z,1.50
2018-12-10T01:57:14.746Z,1.33
2018-12-10T01:58:17.284Z,1.53
2018-12-10T01:59:19.762Z,1.33
2018-12-10T02:00:22.292Z,1.20
2018-12-10T02:01:24.795Z,1.40
2018-12-10T02:02:27.261Z,1.27
2018-12-10T02:03:29.763Z,1.70
2018-12-10T02:04:32.257Z,1.20
2018-12-10T02:05:34.750Z,1.17
2018-12-10T02:06:37.410Z,1.40
2018-12-10T02:07:39.948Z,1.43
2018-12-10T02:08:42.474Z,1.33
2018-12-10T02:09:44.946Z,1.27
2018-12-10T02:10:47.407Z,1.00
2018-12-10T02:11:49.875Z,1.33
2018-12-10T02:12:52.399Z,0.97
2018-12-10T02:13:54.887Z,1.10
2018-12-10T02:14:57.386Z,1.20
2018-12-10T02:15:59.943Z,1.20
2018-12-10T02:17:02.456Z,1.27
2018-12-10T02:18:04.956Z,1.10
2018-12-10T02:19:07.460Z,1.10
2018-12-10T02:20:09.967Z,1.27
2018-12-10T02:21:12.506Z,1.70
2018-12-10T02:22:14.969Z,1.40
2018-12-10T02:23:17.434Z,0.97
2018-12-10T02:24:19.925Z,1.20
2018-12-10T02:25:22.464Z,1.30
2018-12-10T02:26:24.944Z,1.40
2018-12-10T02:27:27.424Z,1.80
2018-12-10T02:30:06.752Z,1.20
2018-12-10T02:31:09.339Z,1.50
2018-12-10T02:32:11.801Z,1.30
2018-12-10T02:33:14.301Z,1.20
2018-12-10T02:34:16.809Z,1.20
2018-12-10T02:35:19.294Z,1.23
2018-12-10T02:36:21.751Z,1.30
2018-12-10T02:37:24.220Z,1.10
2018-12-10T02:38:26.694Z,1.23
2018-12-10T02:39:29.237Z,1.10
2018-12-10T02:40:31.722Z,0.90
2018-12-10T02:41:34.213Z,1.30
2018-12-10T02:42:36.676Z,1.40
2018-12-10T02:43:39.159Z,1.10
2018-12-10T02:44:41.678Z,1.33
2018-12-10T02:45:44.234Z,1.00
2018-12-10T02:46:46.727Z,1.10
2018-12-10T02:47:49.225Z,1.20
2018-12-10T02:48:52.225Z,1.37
2018-12-10T02:49:54.747Z,1.20
2018-12-10T02:50:57.257Z,1.17
2018-12-10T02:52:01.819Z,0.90
2018-12-10T02:53:04.304Z,1.17
2018-12-10T02:54:06.784Z,1.43
2018-12-10T02:55:09.286Z,1.20
2018-12-10T02:56:11.754Z,1.20
2018-12-10T02:57:14.217Z,1.17
2018-12-10T02:58:16.706Z,1.03
2018-12-10T02:59:19.177Z,1.17
2018-12-10T03:00:21.665Z,1.33
2018-12-10T03:01:24.155Z,1.20
2018-12-10T03:02:26.633Z,1.10
2018-12-10T03:03:29.190Z,1.10
2018-12-10T03:04:31.753Z,1.77
2018-12-10T03:05:34.250Z,1.60
2018-12-10T03:06:36.754Z,1.77
2018-12-10T03:07:39.291Z,1.20
2018-12-10T03:08:41.793Z,1.27
2018-12-10T03:09:44.288Z,1.07
2018-12-10T03:10:46.783Z,1.13
2018-12-10T03:11:49.253Z,1.50
2018-12-10T03:12:51.802Z,1.00
2018-12-10T03:13:54.323Z,1.40
2018-12-10T03:14:56.921Z,1.10
2018-12-10T03:15:59.420Z,1.07
2018-12-10T03:17:01.917Z,1.20
2018-12-10T03:18:04.417Z,1.10
2018-12-10T03:19:06.907Z,1.50
2018-12-10T03:20:09.401Z,0.90
2018-12-10T03:21:11.923Z,1.27
2018-12-10T03:22:14.412Z,0.90
2018-12-10T03:23:16.880Z,0.80
2018-12-10T03:24:19.353Z,1.20
2018-12-10T03:25:21.856Z,0.97
2018-12-10T03:26:24.415Z,1.00
2018-12-10T03:27:26.894Z,1.20
2018-12-10T03:28:29.386Z,1.00
2018-12-10T03:29:31.891Z,1.13
2018-12-10T03:30:34.359Z,1.20
2018-12-10T03:31:36.870Z,0.87
2018-12-10T03:32:39.361Z,1.00
2018-12-10T03:33:41.847Z,1.00
2018-12-10T03:34:44.393Z,1.30
2018-12-10T03:35:46.919Z,1.30
2018-12-10T03:36:48.691Z,1.00
2018-12-10T03:37:51.164Z,1.10
2018-12-10T03:38:53.666Z,1.10
2018-12-10T03:39:56.209Z,0.90
2018-12-10T03:40:58.824Z,1.37
2018-12-10T03:42:01.321Z,1.37
2018-12-10T03:43:03.821Z,1.17
2018-12-10T03:44:06.279Z,1.07
2018-12-10T03:45:08.807Z,1.00
2018-12-10T03:46:11.393Z,0.90
2018-12-10T03:47:13.902Z,1.13
2018-12-10T03:48:16.455Z,1.27
2018-12-10T03:49:18.958Z,0.87
2018-12-10T03:50:21.437Z,0.83
2018-12-10T03:51:23.935Z,1.00
2018-12-10T03:52:26.420Z,1.10
2018-12-10T03:53:28.899Z,1.10
2018-12-10T03:54:31.394Z,1.30
2018-12-10T03:55:33.877Z,1.53
2018-12-10T03:56:36.347Z,1.00
2018-12-10T03:57:38.917Z,1.23
2018-12-10T03:58:41.534Z,1.40
2018-12-10T03:59:44.024Z,1.03
2018-12-10T04:00:46.492Z,0.83
2018-12-10T04:01:48.970Z,1.17
2018-12-10T04:02:51.465Z,1.10
2018-12-10T04:03:54.208Z,0.90
2018-12-10T04:04:56.702Z,1.00
2018-12-10T04:05:59.171Z,1.03
2018-12-10T04:07:01.646Z,1.53
2018-12-10T04:08:04.186Z,1.10
2018-12-10T04:09:07.022Z,0.93
2018-12-10T04:10:09.529Z,1.30
2018-12-10T04:11:11.991Z,1.07
2018-12-10T04:12:14.486Z,1.30
2018-12-10T04:13:16.985Z,1.00
2018-12-10T04:14:19.480Z,1.00
2018-12-10T04:15:21.963Z,1.20
2018-12-10T04:16:24.537Z,1.10
2018-12-10T04:17:27.039Z,1.00
2018-12-10T04:18:28.814Z,0.97
2018-12-10T04:19:31.285Z,1.00
2018-12-10T04:20:33.766Z,1.10
2018-12-10T04:21:36.229Z,1.20
2018-12-10T04:22:38.822Z,0.90
2018-12-10T04:23:41.307Z,1.00
2018-12-10T04:24:45.650Z,1.10
2018-12-10T04:25:48.302Z,1.67
2018-12-10T04:26:50.798Z,1.03
2018-12-10T04:27:53.295Z,1.00
2018-12-10T04:28:55.776Z,1.00
2018-12-10T04:29:58.255Z,0.90
2018-12-10T04:31:00.716Z,1.47
2018-12-10T04:32:03.282Z,1.07
2018-12-10T04:33:05.763Z,0.90
2018-12-10T04:34:08.241Z,1.20
2018-12-10T04:35:10.719Z,0.83
2018-12-10T04:36:13.200Z,1.00
2018-12-10T04:37:15.676Z,1.00
2018-12-10T04:38:18.153Z,0.90
2018-12-10T04:39:20.641Z,1.20
2018-12-10T04:40:23.142Z,1.23
2018-12-10T04:41:25.624Z,1.13
2018-12-10T04:42:28.126Z,1.00
2018-12-10T04:43:30.593Z,1.10
2018-12-10T04:44:33.089Z,1.43
2018-12-10T04:45:35.577Z,0.90
2018-12-10T04:46:38.078Z,1.30
2018-12-10T04:47:40.599Z,1.40
2018-12-10T04:48:43.078Z,0.90
2018-12-10T04:49:45.580Z,1.40
2018-12-10T04:50:48.077Z,1.13
2018-12-10T04:51:50.557Z,0.90
2018-12-10T04:52:53.075Z,1.10
2018-12-10T04:53:55.567Z,1.00
2018-12-10T04:54:58.050Z,1.07
2018-12-10T04:56:00.539Z,0.87
2018-12-10T04:57:03.022Z,0.97
2018-12-10T04:58:05.515Z,0.90
2018-12-10T04:59:08.035Z,0.90
2018-12-10T05:00:10.576Z,1.10
2018-12-10T05:01:13.072Z,1.20
2018-12-10T05:02:15.551Z,1.30
2018-12-10T05:03:20.020Z,1.27
2018-12-10T05:04:22.533Z,1.40
2018-12-10T05:05:25.037Z,1.10
2018-12-10T05:06:27.525Z,1.30
2018-12-10T05:07:29.988Z,1.10
2018-12-10T05:08:32.467Z,1.57
2018-12-10T05:09:34.961Z,1.07
2018-12-10T05:10:37.584Z,1.23
2018-12-10T05:11:40.169Z,0.97
2018-12-10T05:12:42.781Z,1.37
2018-12-10T05:13:45.285Z,1.03
2018-12-10T05:14:48.256Z,1.00
2018-12-10T05:15:50.740Z,1.20
2018-12-10T05:16:53.219Z,1.20
2018-12-10T05:17:55.719Z,1.30
2018-12-10T05:18:58.300Z,1.23
2018-12-10T05:20:00.764Z,1.17
2018-12-10T05:21:03.259Z,0.90
2018-12-10T05:22:05.762Z,1.10
2018-12-10T05:23:08.240Z,1.13
2018-12-10T05:24:10.774Z,0.97
2018-12-10T05:25:13.267Z,1.20
2018-12-10T05:26:15.728Z,1.10
2018-12-10T05:27:18.193Z,1.10
2018-12-10T05:28:20.662Z,0.93
2018-12-10T05:29:23.162Z,1.20
2018-12-10T05:30:25.631Z,1.00
2018-12-10T05:31:28.110Z,1.10
2018-12-10T05:32:30.604Z,1.23
2018-12-10T05:33:33.081Z,1.30
2018-12-10T05:34:35.590Z,1.23
2018-12-10T05:35:38.066Z,1.00
2018-12-10T05:36:40.563Z,0.90
2018-12-10T05:37:43.106Z,1.20
2018-12-10T05:38:45.591Z,0.97
2018-12-10T05:39:48.098Z,1.13
2018-12-10T05:40:50.582Z,1.00
2018-12-10T05:41:53.070Z,1.10
2018-12-10T05:42:55.558Z,1.00
2018-12-10T05:43:58.056Z,1.23
2018-12-10T05:45:00.552Z,1.10
2018-12-10T05:46:03.038Z,1.20
2018-12-10T05:47:05.512Z,1.20
2018-12-10T05:48:08.000Z,1.10
2018-12-10T05:49:10.483Z,1.13
2018-12-10T05:50:12.962Z,1.00
2018-12-10T05:51:15.527Z,1.20
2018-12-10T05:52:18.024Z,1.00
2018-12-10T05:53:20.502Z,1.00
2018-12-10T05:54:22.986Z,1.30
2018-12-10T05:55:25.507Z,1.47
2018-12-10T05:56:27.998Z,0.90
2018-12-10T05:57:30.490Z,1.33
2018-12-10T05:58:32.984Z,1.27
2018-12-10T05:59:35.473Z,1.27
2018-12-10T06:00:37.985Z,1.23
2018-12-10T06:01:40.443Z,1.30
2018-12-10T06:02:42.937Z,1.20
2018-12-10T06:03:45.442Z,1.00
2018-12-10T06:04:47.972Z,1.10
2018-12-10T06:05:50.478Z,1.00
2018-12-10T06:06:53.137Z,1.27
2018-12-10T06:07:55.652Z,1.10
2018-12-10T06:08:58.131Z,1.43
2018-12-10T06:10:00.613Z,1.20
2018-12-10T06:11:03.097Z,1.03
2018-12-10T06:12:05.630Z,1.20
2018-12-10T06:13:08.189Z,1.20
2018-12-10T06:14:10.679Z,0.87
2018-12-10T06:15:13.245Z,1.20
2018-12-10T06:16:16.743Z,1.43
2018-12-10T06:17:19.465Z,1.13
2018-12-10T06:18:21.968Z,1.30
2018-12-10T06:19:24.491Z,1.13
2018-12-10T06:20:27.034Z,1.00
2018-12-10T06:21:29.517Z,1.50
2018-12-10T06:22:31.981Z,1.10
2018-12-10T06:23:34.459Z,1.10
2018-12-10T06:24:36.951Z,1.10
2018-12-10T06:25:39.438Z,1.00
2018-12-10T06:26:41.243Z,1.20
2018-12-10T06:27:43.718Z,1.17
2018-12-10T06:28:46.185Z,1.30
2018-12-10T06:29:48.681Z,1.00
2018-12-10T06:30:51.168Z,1.20
2018-12-10T06:31:53.665Z,1.73
2018-12-10T06:32:56.147Z,1.70
2018-12-10T06:33:58.623Z,1.80
2018-12-10T06:35:01.099Z,1.90
2018-12-10T06:36:03.781Z,1.90
2018-12-10T06:37:06.291Z,1.67
2018-12-10T06:38:08.773Z,1.50
2018-12-10T06:39:11.248Z,1.70
2018-12-10T06:40:13.777Z,1.43
2018-12-10T06:41:16.278Z,1.43
2018-12-10T06:42:18.865Z,1.87
2018-12-10T06:43:21.351Z,1.80
2018-12-10T06:44:23.843Z,3.27
2018-12-10T06:45:26.351Z,1.90
2018-12-10T06:46:28.828Z,1.87
2018-12-10T06:47:31.327Z,2.17
2018-12-10T06:48:33.848Z,2.40
2018-12-10T06:49:36.358Z,2.93
2018-12-10T06:50:38.854Z,3.30
2018-12-10T06:51:41.377Z,3.37
2018-12-10T06:52:43.875Z,3.63
2018-12-10T06:53:46.362Z,4.57
2018-12-10T06:54:48.923Z,4.13
2018-12-10T06:55:51.432Z,3.87
2018-12-10T06:56:54.630Z,4.30
2018-12-10T06:57:57.139Z,4.20
2018-12-10T06:58:59.600Z,7.30
2018-12-10T07:00:02.337Z,8.20
2018-12-10T07:01:04.818Z,8.17
2018-12-10T07:02:07.280Z,6.73
2018-12-10T07:03:09.798Z,7.53
2018-12-10T07:04:12.282Z,7.90
2018-12-10T07:05:14.799Z,8.40
2018-12-10T07:06:17.287Z,6.13
2018-12-10T07:07:20.358Z,7.10
2018-12-10T07:08:22.920Z,5.83
2018-12-10T07:09:25.410Z,6.70
2018-12-10T07:10:27.908Z,6.33
2018-12-10T07:11:30.461Z,7.10
2018-12-10T07:12:32.938Z,6.30
2018-12-10T07:13:35.420Z,12.33
2018-12-10T07:14:37.915Z,13.30
2018-12-10T07:15:40.376Z,9.80
2018-12-10T07:16:42.921Z,11.20
2018-12-10T07:17:45.463Z,14.03
2018-12-10T07:18:47.975Z,13.67
2018-12-10T07:19:50.478Z,12.03
2018-12-10T07:20:52.989Z,11.37
2018-12-10T07:21:55.488Z,9.73
2018-12-10T07:22:57.997Z,11.27
2018-12-10T07:24:00.484Z,10.03
2018-12-10T07:25:03.042Z,10.13
2018-12-10T07:26:05.523Z,8.57
2018-12-10T07:27:08.009Z,8.57
2018-12-10T07:28:10.603Z,8.03
2018-12-10T07:29:13.107Z,7.73
2018-12-10T07:30:15.605Z,7.47
2018-12-10T07:31:18.109Z,5.70
2018-12-10T07:32:20.608Z,5.87
2018-12-10T07:33:23.132Z,5.40
2018-12-10T07:34:25.688Z,5.83
2018-12-10T07:35:28.166Z,6.07
2018-12-10T07:36:30.639Z,6.17
2018-12-10T07:37:33.099Z,6.67
2018-12-10T07:38:35.613Z,5.87
2018-12-10T07:39:38.252Z,6.10
2018-12-10T07:40:40.736Z,5.97
2018-12-10T07:41:43.233Z,5.80
2018-12-10T07:42:45.719Z,5.50
2018-12-10T07:43:48.341Z,6.73
2018-12-10T07:44:50.838Z,5.37
2018-12-10T07:45:53.328Z,6.30
2018-12-10T07:46:55.811Z,5.97
2018-12-10T07:47:58.307Z,6.50
2018-12-10T07:49:00.801Z,5.70
2018-12-10T07:50:03.356Z,5.63
2018-12-10T07:51:05.843Z,6.30
2018-12-10T07:52:08.310Z,5.50
2018-12-10T07:53:10.816Z,5.47
2018-12-10T07:54:13.276Z,5.60
2018-12-10T07:55:15.774Z,5.50
2018-12-10T07:56:18.243Z,5.33
2018-12-10T07:57:20.814Z,5.47
2018-12-10T07:58:23.320Z,5.80
2018-12-10T07:59:25.816Z,5.40
2018-12-10T08:00:28.333Z,5.53
2018-12-10T08:01:30.800Z,4.93
2018-12-10T08:02:33.377Z,5.33
2018-12-10T08:03:35.859Z,5.10
2018-12-10T08:04:38.356Z,5.50
2018-12-10T08:05:40.867Z,5.67
2018-12-10T08:06:43.374Z,5.90
2018-12-10T08:07:45.841Z,5.27
2018-12-10T08:08:50.267Z,4.73
2018-12-10T08:09:52.866Z,4.67
2018-12-10T08:10:55.374Z,5.20
2018-12-10T08:11:57.845Z,4.70
2018-12-10T08:13:00.356Z,4.80
2018-12-10T08:14:03.654Z,4.70
2018-12-10T08:15:06.634Z,5.17
2018-12-10T08:16:09.152Z,5.00
2018-12-10T08:17:11.633Z,5.50
2018-12-10T08:18:14.133Z,4.30
2018-12-10T08:19:16.627Z,5.07
2018-12-10T08:20:19.110Z,4.73
2018-12-10T08:21:21.619Z,4.50
2018-12-10T08:22:24.124Z,4.50
2018-12-10T08:23:26.614Z,4.87
2018-12-10T08:24:29.251Z,4.57
2018-12-10T08:25:31.887Z,5.07
2018-12-10T08:26:34.405Z,4.70
2018-12-10T08:27:36.917Z,4.80
2018-12-10T08:28:39.451Z,4.30
2018-12-10T08:29:41.949Z,4.40
2018-12-10T08:30:44.497Z,4.40
2018-12-10T08:31:46.973Z,4.07
2018-12-10T08:32:49.455Z,4.53
2018-12-10T08:33:52.187Z,5.13
2018-12-10T08:34:54.754Z,4.83
2018-12-10T08:35:57.239Z,4.70
2018-12-10T08:36:59.735Z,4.50
2018-12-10T08:38:02.211Z,3.83
2018-12-10T08:39:06.518Z,4.20
2018-12-10T08:40:09.122Z,4.30
2018-12-10T08:41:11.625Z,4.67
2018-12-10T08:42:14.125Z,4.13
2018-12-10T08:43:16.608Z,5.23
2018-12-10T08:44:19.106Z,4.53
2018-12-10T08:45:21.560Z,4.10
2018-12-10T08:46:24.116Z,4.27
2018-12-10T08:47:26.618Z,4.57
2018-12-10T08:48:29.085Z,4.73
2018-12-10T08:49:31.570Z,4.63
2018-12-10T08:50:34.103Z,5.00
2018-12-10T08:51:36.586Z,4.27
2018-12-10T08:52:39.064Z,5.07
2018-12-10T08:53:41.566Z,4.30
2018-12-10T08:54:44.121Z,4.80
2018-12-10T08:55:46.603Z,4.13
2018-12-10T08:56:49.078Z,4.03
2018-12-10T08:57:51.555Z,3.53
2018-12-10T08:58:54.047Z,4.37
2018-12-10T08:59:56.511Z,4.47
2018-12-10T09:00:59.003Z,4.27
2018-12-10T09:02:01.540Z,4.77
2018-12-10T09:03:04.059Z,3.80
2018-12-10T09:04:06.559Z,3.60
2018-12-10T09:05:09.042Z,4.20
2018-12-10T09:06:11.550Z,4.93
2018-12-10T09:07:14.041Z,4.10
2018-12-10T09:08:16.523Z,3.80
2018-12-10T09:09:19.087Z,3.93
2018-12-10T09:10:21.557Z,3.63
2018-12-10T09:11:24.065Z,3.80
2018-12-10T09:12:26.653Z,3.80
2018-12-10T09:13:29.189Z,3.60
2018-12-10T09:14:31.766Z,3.60
2018-12-10T09:15:34.276Z,3.27
2018-12-10T09:16:36.773Z,3.77
2018-12-10T09:17:39.293Z,3.90
2018-12-10T09:18:41.865Z,3.40
2018-12-10T09:19:44.365Z,3.30
2018-12-10T09:20:47.095Z,3.90
2018-12-10T09:21:49.694Z,4.47
2018-12-10T09:22:52.198Z,3.90
2018-12-10T09:23:54.719Z,3.90
2018-12-10T09:24:57.180Z,3.67
2018-12-10T09:25:59.658Z,3.73
2018-12-10T09:27:02.132Z,3.70
2018-12-10T09:28:04.611Z,3.83
2018-12-10T09:29:07.105Z,3.53
2018-12-10T09:30:10.746Z,3.70
2018-12-10T09:31:13.237Z,3.43
2018-12-10T09:32:15.701Z,3.10
2018-12-10T09:33:18.196Z,3.60
2018-12-10T09:34:20.694Z,3.80
2018-12-10T09:35:23.186Z,3.50
2018-12-10T09:36:25.690Z,3.30
2018-12-10T09:37:28.192Z,4.10
2018-12-10T09:38:30.687Z,2.87
2018-12-10T09:39:33.159Z,3.13
2018-12-10T09:40:35.653Z,3.97
2018-12-10T09:41:38.142Z,3.40
2018-12-10T09:42:40.612Z,3.10
2018-12-10T09:43:43.100Z,2.97
2018-12-10T09:44:45.594Z,3.30
2018-12-10T09:45:48.089Z,3.30
2018-12-10T09:46:58.529Z,3.50
2018-12-10T09:47:55.210Z,3.80
2018-12-10T09:48:57.682Z,3.00
2018-12-10T09:50:00.157Z,3.93
2018-12-10T09:51:02.619Z,3.17
2018-12-10T09:52:05.101Z,3.30
2018-12-10T09:53:07.580Z,3.60
2018-12-10T09:54:10.040Z,3.10
2018-12-10T09:55:12.553Z,2.90
2018-12-10T09:56:15.034Z,2.53
2018-12-10T09:57:17.510Z,3.40
2018-12-10T09:58:20.004Z,3.17
2018-12-10T09:59:23.005Z,3.37
2018-12-10T10:00:25.551Z,3.70
2018-12-10T10:01:28.163Z,2.70
2018-12-10T10:02:30.645Z,2.97
2018-12-10T10:03:33.132Z,3.00
2018-12-10T10:04:35.626Z,3.10
2018-12-10T10:05:38.095Z,3.70
2018-12-10T10:06:40.609Z,3.27
2018-12-10T10:07:43.100Z,3.17
2018-12-10T10:08:45.582Z,3.40
2018-12-10T10:09:48.089Z,2.90
2018-12-10T10:10:50.556Z,3.00
2018-12-10T10:11:53.032Z,3.40
2018-12-10T10:12:55.514Z,3.87
2018-12-10T10:13:58.009Z,3.10
2018-12-10T10:15:00.521Z,3.47
2018-12-10T10:16:02.976Z,3.67
2018-12-10T10:17:05.440Z,3.67
2018-12-10T10:18:07.943Z,3.73
2018-12-10T10:19:10.427Z,3.40
2018-12-10T10:20:12.960Z,3.30
2018-12-10T10:21:15.439Z,3.90
2018-12-10T10:22:17.922Z,3.67
2018-12-10T10:23:20.388Z,3.50
2018-12-10T10:24:22.902Z,4.20
2018-12-10T10:25:25.379Z,4.43
2018-12-10T10:26:27.856Z,3.90
2018-12-10T10:27:30.347Z,4.17
2018-12-10T10:28:32.838Z,4.20
2018-12-10T10:29:35.311Z,3.10
2018-12-10T10:30:43.739Z,4.23
2018-12-10T10:31:42.402Z,4.37
2018-12-10T10:32:44.860Z,3.00
2018-12-10T10:33:47.355Z,4.23
2018-12-10T10:34:49.854Z,3.70
2018-12-10T10:35:52.391Z,3.57
2018-12-10T10:36:54.863Z,4.00
2018-12-10T10:37:57.339Z,4.30
2018-12-10T10:38:59.840Z,3.97
2018-12-10T10:40:02.312Z,3.60
2018-12-10T10:41:04.780Z,3.93
2018-12-10T10:42:07.255Z,4.07
2018-12-10T10:43:09.735Z,3.90
2018-12-10T10:44:12.259Z,4.53
2018-12-10T10:45:14.757Z,4.40
2018-12-10T10:46:17.216Z,3.63
2018-12-10T10:47:19.791Z,3.90
2018-12-10T10:48:22.306Z,4.03
2018-12-10T10:49:24.771Z,4.60
2018-12-10T10:50:27.249Z,3.60
2018-12-10T10:51:29.795Z,3.90
2018-12-10T10:52:33.359Z,4.20
2018-12-10T10:53:36.185Z,3.67
2018-12-10T10:54:38.673Z,4.97
2018-12-10T10:55:41.148Z,4.00
2018-12-10T10:56:43.629Z,4.70
2018-12-10T10:57:46.111Z,3.67
2018-12-10T10:58:48.599Z,4.40
2018-12-10T10:59:51.083Z,4.67
2018-12-10T11:00:59.156Z,4.00
2018-12-10T11:02:03.609Z,4.03
2018-12-10T11:03:08.062Z,5.13
2018-12-10T11:04:10.692Z,3.90
2018-12-10T11:05:13.348Z,3.97
2018-12-10T11:06:15.917Z,4.47
2018-12-10T11:07:18.404Z,4.50
2018-12-10T11:08:20.887Z,4.40
2018-12-10T11:09:23.384Z,4.87
2018-12-10T11:10:25.886Z,4.70
2018-12-10T11:11:28.384Z,6.87
2018-12-10T11:12:30.897Z,6.90
2018-12-10T11:13:33.379Z,8.37
2018-12-10T11:14:35.875Z,8.40
2018-12-10T11:15:38.430Z,9.17
2018-12-10T11:16:40.986Z,9.73
2018-12-10T11:17:43.453Z,8.20
2018-12-10T11:18:45.952Z,9.63
2018-12-10T11:19:48.452Z,11.43
2018-12-10T11:20:50.993Z,11.13
2018-12-10T11:21:53.462Z,10.37
2018-12-10T11:22:55.931Z,12.83
2018-12-10T11:23:58.397Z,11.57
2018-12-10T11:25:00.913Z,10.00
2018-12-10T11:26:03.452Z,10.70
2018-12-10T11:27:05.988Z,10.57
2018-12-10T11:28:08.491Z,10.93
2018-12-10T11:29:11.062Z,9.90
2018-12-10T11:30:13.608Z,10.73
2018-12-10T11:31:17.320Z,10.47
2018-12-10T11:32:20.258Z,10.93
2018-12-10T11:33:22.738Z,9.50
2018-12-10T11:34:25.220Z,10.30
2018-12-10T11:35:27.876Z,10.40
2018-12-10T11:36:30.340Z,8.67
2018-12-10T11:37:32.840Z,10.73
2018-12-10T11:38:35.322Z,9.77
2018-12-10T11:39:37.810Z,10.70
2018-12-10T11:40:40.318Z,9.33
2018-12-10T11:41:42.797Z,9.47
2018-12-10T11:42:45.286Z,9.50
2018-12-10T11:43:47.969Z,9.73
2018-12-10T11:44:50.563Z,9.80
2018-12-10T11:45:53.154Z,8.30
2018-12-10T11:46:55.640Z,8.83
2018-12-10T11:47:58.134Z,8.93
2018-12-10T11:49:00.620Z,9.83
2018-12-10T11:50:04.262Z,10.00
2018-12-10T11:51:06.752Z,9.20
2018-12-10T11:52:09.249Z,9.27
2018-12-10T11:53:11.719Z,8.27
2018-12-10T11:54:14.257Z,7.50
2018-12-10T11:55:16.721Z,8.20
2018-12-10T11:56:19.237Z,8.43
2018-12-10T11:57:21.767Z,9.97
2018-12-10T11:58:24.262Z,8.50
2018-12-10T11:59:26.765Z,9.30
2018-12-10T12:00:29.702Z,9.03
2018-12-10T12:01:32.351Z,8.90
2018-12-10T12:02:34.825Z,9.40
2018-12-10T12:03:37.299Z,9.00
2018-12-10T12:04:39.783Z,9.27
2018-12-10T12:05:42.285Z,7.90
2018-12-10T12:06:44.797Z,7.40
2018-12-10T12:07:47.275Z,8.80
2018-12-10T12:08:49.770Z,9.13
2018-12-10T12:09:52.267Z,8.83
2018-12-10T12:10:54.773Z,8.23
2018-12-10T12:11:57.346Z,7.47
2018-12-10T12:12:59.808Z,7.70
2018-12-10T12:14:02.381Z,8.43
2018-12-10T12:15:05.692Z,7.67
2018-12-10T12:16:08.170Z,7.90
2018-12-10T12:17:10.671Z,7.27
2018-12-10T12:18:13.152Z,8.17
2018-12-10T12:19:15.645Z,7.37
2018-12-10T12:20:18.115Z,7.93
2018-12-10T12:21:20.602Z,7.20
2018-12-10T12:22:23.121Z,7.37
2018-12-10T12:23:25.609Z,9.70
2018-12-10T12:24:28.080Z,7.63
2018-12-10T12:25:30.806Z,7.90
2018-12-10T12:26:33.302Z,8.43
2018-12-10T12:27:35.763Z,8.67
2018-12-10T12:28:38.246Z,7.37
2018-12-10T12:29:40.722Z,6.80
2018-12-10T12:30:43.196Z,6.70
2018-12-10T12:31:45.705Z,7.30
2018-12-10T12:32:48.192Z,6.67
2018-12-10T12:33:50.702Z,6.90
2018-12-10T12:34:53.207Z,6.90
2018-12-10T12:35:55.714Z,6.83
2018-12-10T12:36:58.192Z,7.10
2018-12-10T12:38:00.670Z,7.57
2018-12-10T12:39:04.813Z,7.50
2018-12-10T12:40:07.444Z,7.60
2018-12-10T12:41:09.939Z,7.03
2018-12-10T12:42:12.426Z,7.73
2018-12-10T12:43:16.085Z,6.70
2018-12-10T12:44:18.930Z,6.83
2018-12-10T12:45:21.429Z,7.87
2018-12-10T12:46:24.013Z,7.00
2018-12-10T12:47:26.510Z,6.40
2018-12-10T12:48:28.999Z,6.27
2018-12-10T12:49:31.497Z,6.40
2018-12-10T12:50:34.003Z,7.50
2018-12-10T12:51:36.485Z,7.20
2018-12-10T12:52:38.972Z,6.60
2018-12-10T12:53:41.614Z,7.67
2018-12-10T12:54:44.226Z,6.20
2018-12-10T12:55:46.791Z,6.87
2018-12-10T12:56:49.353Z,6.40
2018-12-10T12:57:51.861Z,6.40
2018-12-10T12:58:54.379Z,7.07
2018-12-10T12:59:56.881Z,6.70
2018-12-10T13:00:59.956Z,7.30
2018-12-10T13:02:02.651Z,6.77
2018-12-10T13:03:05.124Z,7.20
2018-12-10T13:04:07.596Z,7.13
2018-12-10T13:05:10.092Z,5.97
2018-12-10T13:06:12.576Z,6.90
2018-12-10T13:07:15.059Z,6.10
2018-12-10T13:08:17.553Z,7.07
2018-12-10T13:09:21.845Z,6.60
2018-12-10T13:10:24.618Z,6.47
2018-12-10T13:11:27.104Z,7.50
2018-12-10T13:12:29.571Z,7.10
2018-12-10T13:13:32.036Z,5.73
2018-12-10T13:14:34.528Z,4.97
2018-12-10T13:15:37.082Z,5.90
2018-12-10T13:16:39.557Z,6.90
2018-12-10T13:17:42.066Z,6.50
2018-12-10T13:18:44.630Z,5.70
2018-12-10T13:19:47.099Z,5.83
2018-12-10T13:20:49.609Z,6.30
2018-12-10T13:21:52.109Z,5.77
2018-12-10T13:22:54.616Z,5.90
2018-12-10T13:23:57.118Z,6.60
2018-12-10T13:24:59.619Z,6.07
2018-12-10T13:26:02.120Z,6.77
2018-12-10T13:27:04.609Z,6.30
2018-12-10T13:28:07.110Z,6.30
2018-12-10T13:29:09.724Z,6.90
2018-12-10T13:30:12.277Z,6.20
2018-12-10T13:31:14.856Z,6.50
2018-12-10T13:32:17.373Z,6.50
2018-12-10T13:33:20.602Z,6.00
2018-12-10T13:34:23.112Z,6.53
2018-12-10T13:35:25.623Z,6.20
2018-12-10T13:36:28.111Z,5.90
2018-12-10T13:37:30.600Z,5.87
2018-12-10T13:38:36.939Z,5.80
2018-12-10T13:39:37.587Z,6.47
2018-12-10T13:40:40.109Z,6.10
2018-12-10T13:41:42.607Z,6.17
2018-12-10T13:42:45.101Z,5.70
2018-12-10T13:43:47.662Z,6.27
2018-12-10T13:44:50.320Z,6.97
2018-12-10T13:45:52.828Z,5.53
2018-12-10T13:46:55.419Z,6.57
2018-12-10T13:47:57.889Z,5.83
2018-12-10T13:49:00.379Z,6.07
2018-12-10T13:50:02.889Z,5.37
2018-12-10T13:51:05.374Z,5.63
2018-12-10T13:52:09.182Z,5.83
2018-12-10T13:53:12.026Z,6.17
2018-12-10T13:54:14.501Z,5.73
2018-12-10T13:55:17.007Z,5.97